sensor_id;sensor_type;location;lat;lon;timestamp;P1;durP1;ratioP1;P2;durP2;ratioP2
14584;SDS011;7379;51.506;11.876;2024-02-26T00:00:12;6.27;;;5.30;;
14584;SDS011;7379;51.506;11.876;2024-02-26T00:02:40;5.37;;;4.83;;
14584;SDS011;7379;51.506;11.876;2024-02-26T00:05:08;6.93;;;5.70;;
14584;SDS011;7379;51.506;11.876;2024-02-26T00:07:35;6.03;;;5.43;;
14584;SDS011;7379;51.506;11.876;2024-02-26T00:10:03;5.90;;;5.27;;
14584;SDS011;7379;51.506;11.876;2024-02-26T00:12:30;6.10;;;5.10;;
14584;SDS011;7379;51.506;11.876;2024-02-26T00:14:57;5.73;;;5.03;;
14584;SDS011;7379;51.506;11.876;2024-02-26T00:17:24;5.90;;;5.20;;
14584;SDS011;7379;51.506;11.876;2024-02-26T00:19:50;7.23;;;5.03;;
14584;SDS011;7379;51.506;11.876;2024-02-26T00:22:19;4.77;;;4.27;;
14584;SDS011;7379;51.506;11.876;2024-02-26T00:24:47;6.13;;;5.53;;
14584;SDS011;7379;51.506;11.876;2024-02-26T00:27:13;6.10;;;4.77;;
14584;SDS011;7379;51.506;11.876;2024-02-26T00:29:40;5.23;;;4.73;;
14584;SDS011;7379;51.506;11.876;2024-02-26T00:32:07;5.60;;;4.80;;
14584;SDS011;7379;51.506;11.876;2024-02-26T00:34:33;5.60;;;5.03;;
14584;SDS011;7379;51.506;11.876;2024-02-26T00:37:01;6.63;;;5.00;;
14584;SDS011;7379;51.506;11.876;2024-02-26T00:39:29;5.73;;;4.90;;
14584;SDS011;7379;51.506;11.876;2024-02-26T00:41:55;5.20;;;4.60;;
14584;SDS011;7379;51.506;11.876;2024-02-26T00:44:23;5.30;;;4.70;;
14584;SDS011;7379;51.506;11.876;2024-02-26T00:46:49;5.23;;;4.40;;
14584;SDS011;7379;51.506;11.876;2024-02-26T00:49:16;4.77;;;4.33;;
14584;SDS011;7379;51.506;11.876;2024-02-26T00:51:43;5.97;;;4.70;;
14584;SDS011;7379;51.506;11.876;2024-02-26T00:54:09;5.23;;;4.40;;
14584;SDS011;7379;51.506;11.876;2024-02-26T00:56:38;5.07;;;4.50;;
14584;SDS011;7379;51.506;11.876;2024-02-26T00:59:04;4.80;;;4.30;;
14584;SDS011;7379;51.506;11.876;2024-02-26T01:01:31;5.00;;;4.40;;
14584;SDS011;7379;51.506;11.876;2024-02-26T01:03:58;5.03;;;4.53;;
14584;SDS011;7379;51.506;11.876;2024-02-26T01:06:24;5.40;;;4.47;;
14584;SDS011;7379;51.506;11.876;2024-02-26T01:08:51;5.40;;;4.60;;
14584;SDS011;7379;51.506;11.876;2024-02-26T01:11:18;5.00;;;4.33;;
14584;SDS011;7379;51.506;11.876;2024-02-26T01:13:46;5.27;;;4.63;;
14584;SDS011;7379;51.506;11.876;2024-02-26T01:16:13;5.43;;;4.87;;
14584;SDS011;7379;51.506;11.876;2024-02-26T01:18:40;5.23;;;4.47;;
14584;SDS011;7379;51.506;11.876;2024-02-26T01:21:06;5.20;;;4.67;;
14584;SDS011;7379;51.506;11.876;2024-02-26T01:23:34;5.03;;;4.50;;
14584;SDS011;7379;51.506;11.876;2024-02-26T01:26:01;5.20;;;4.50;;
14584;SDS011;7379;51.506;11.876;2024-02-26T01:28:29;5.10;;;4.60;;
14584;SDS011;7379;51.506;11.876;2024-02-26T01:30:57;5.53;;;4.50;;
14584;SDS011;7379;51.506;11.876;2024-02-26T01:33:25;5.43;;;4.93;;
14584;SDS011;7379;51.506;11.876;2024-02-26T01:35:55;6.10;;;4.87;;
14584;SDS011;7379;51.506;11.876;2024-02-26T01:38:21;5.60;;;4.70;;
14584;SDS011;7379;51.506;11.876;2024-02-26T01:40:48;5.60;;;5.00;;
14584;SDS011;7379;51.506;11.876;2024-02-26T01:43:15;4.73;;;4.27;;
14584;SDS011;7379;51.506;11.876;2024-02-26T01:45:41;5.40;;;4.53;;
14584;SDS011;7379;51.506;11.876;2024-02-26T01:48:10;5.77;;;4.67;;
14584;SDS011;7379;51.506;11.876;2024-02-26T01:50:36;5.17;;;4.50;;
14584;SDS011;7379;51.506;11.876;2024-02-26T01:53:03;5.23;;;4.50;;
14584;SDS011;7379;51.506;11.876;2024-02-26T01:55:31;4.80;;;4.27;;
14584;SDS011;7379;51.506;11.876;2024-02-26T01:57:58;5.20;;;4.70;;
14584;SDS011;7379;51.506;11.876;2024-02-26T02:00:25;5.43;;;4.53;;
14584;SDS011;7379;51.506;11.876;2024-02-26T02:02:53;4.93;;;4.43;;
14584;SDS011;7379;51.506;11.876;2024-02-26T02:05:21;5.50;;;4.57;;
14584;SDS011;7379;51.506;11.876;2024-02-26T02:07:48;5.20;;;4.67;;
14584;SDS011;7379;51.506;11.876;2024-02-26T02:10:16;5.40;;;4.60;;
14584;SDS011;7379;51.506;11.876;2024-02-26T02:12:47;5.03;;;4.40;;
14584;SDS011;7379;51.506;11.876;2024-02-26T02:15:14;5.13;;;4.63;;
14584;SDS011;7379;51.506;11.876;2024-02-26T02:17:41;5.40;;;4.80;;
14584;SDS011;7379;51.506;11.876;2024-02-26T02:20:08;6.00;;;4.83;;
14584;SDS011;7379;51.506;11.876;2024-02-26T02:22:37;5.03;;;4.53;;
14584;SDS011;7379;51.506;11.876;2024-02-26T02:25:04;6.13;;;4.90;;
14584;SDS011;7379;51.506;11.876;2024-02-26T02:27:31;6.63;;;5.10;;
14584;SDS011;7379;51.506;11.876;2024-02-26T02:29:58;5.60;;;5.00;;
14584;SDS011;7379;51.506;11.876;2024-02-26T02:32:25;6.77;;;4.93;;
14584;SDS011;7379;51.506;11.876;2024-02-26T02:34:53;5.60;;;4.80;;
14584;SDS011;7379;51.506;11.876;2024-02-26T02:37:20;5.97;;;5.20;;
14584;SDS011;7379;51.506;11.876;2024-02-26T02:39:48;6.30;;;5.10;;
14584;SDS011;7379;51.506;11.876;2024-02-26T02:42:15;5.67;;;4.93;;
14584;SDS011;7379;51.506;11.876;2024-02-26T02:44:42;5.60;;;4.80;;
14584;SDS011;7379;51.506;11.876;2024-02-26T02:47:09;6.50;;;5.43;;
14584;SDS011;7379;51.506;11.876;2024-02-26T02:49:36;5.60;;;5.00;;
14584;SDS011;7379;51.506;11.876;2024-02-26T02:52:03;5.97;;;5.03;;
14584;SDS011;7379;51.506;11.876;2024-02-26T02:54:30;6.07;;;5.20;;
14584;SDS011;7379;51.506;11.876;2024-02-26T02:56:59;5.33;;;4.83;;
14584;SDS011;7379;51.506;11.876;2024-02-26T02:59:25;5.93;;;5.33;;
14584;SDS011;7379;51.506;11.876;2024-02-26T03:01:53;5.60;;;5.07;;
14584;SDS011;7379;51.506;11.876;2024-02-26T03:04:19;5.43;;;4.93;;
14584;SDS011;7379;51.506;11.876;2024-02-26T03:06:46;5.30;;;4.80;;
14584;SDS011;7379;51.506;11.876;2024-02-26T03:09:13;6.20;;;4.83;;
14584;SDS011;7379;51.506;11.876;2024-02-26T03:11:39;5.70;;;5.10;;
14584;SDS011;7379;51.506;11.876;2024-02-26T03:14:08;5.17;;;4.67;;
14584;SDS011;7379;51.506;11.876;2024-02-26T03:16:34;6.37;;;5.10;;
14584;SDS011;7379;51.506;11.876;2024-02-26T03:19:01;5.13;;;4.63;;
14584;SDS011;7379;51.506;11.876;2024-02-26T03:21:29;6.17;;;4.93;;
14584;SDS011;7379;51.506;11.876;2024-02-26T03:23:55;5.80;;;5.10;;
14584;SDS011;7379;51.506;11.876;2024-02-26T03:26:22;5.33;;;4.83;;
14584;SDS011;7379;51.506;11.876;2024-02-26T03:28:49;5.63;;;4.87;;
14584;SDS011;7379;51.506;11.876;2024-02-26T03:31:17;5.00;;;4.50;;
14584;SDS011;7379;51.506;11.876;2024-02-26T03:33:44;5.37;;;4.87;;
14584;SDS011;7379;51.506;11.876;2024-02-26T03:36:10;6.07;;;5.00;;
14584;SDS011;7379;51.506;11.876;2024-02-26T03:38:37;5.03;;;4.50;;
14584;SDS011;7379;51.506;11.876;2024-02-26T03:41:04;6.23;;;5.13;;
14584;SDS011;7379;51.506;11.876;2024-02-26T03:43:30;6.37;;;5.27;;
14584;SDS011;7379;51.506;11.876;2024-02-26T03:45:56;6.43;;;5.27;;
14584;SDS011;7379;51.506;11.876;2024-02-26T03:48:24;5.67;;;4.87;;
14584;SDS011;7379;51.506;11.876;2024-02-26T03:50:51;5.70;;;5.10;;
14584;SDS011;7379;51.506;11.876;2024-02-26T03:53:18;6.07;;;4.80;;
14584;SDS011;7379;51.506;11.876;2024-02-26T03:55:45;5.53;;;4.90;;
14584;SDS011;7379;51.506;11.876;2024-02-26T03:58:12;5.57;;;4.93;;
14584;SDS011;7379;51.506;11.876;2024-02-26T04:00:40;6.63;;;5.53;;
14584;SDS011;7379;51.506;11.876;2024-02-26T04:03:06;6.10;;;5.50;;
14584;SDS011;7379;51.506;11.876;2024-02-26T04:05:34;6.17;;;5.53;;
14584;SDS011;7379;51.506;11.876;2024-02-26T04:08:01;6.07;;;5.20;;
14584;SDS011;7379;51.506;11.876;2024-02-26T04:10:29;6.43;;;5.20;;
14584;SDS011;7379;51.506;11.876;2024-02-26T04:12:56;6.90;;;5.77;;
14584;SDS011;7379;51.506;11.876;2024-02-26T04:15:22;5.77;;;5.13;;
14584;SDS011;7379;51.506;11.876;2024-02-26T04:17:49;6.37;;;5.67;;
14584;SDS011;7379;51.506;11.876;2024-02-26T04:20:16;8.03;;;5.97;;
14584;SDS011;7379;51.506;11.876;2024-02-26T04:22:44;6.70;;;5.50;;
14584;SDS011;7379;51.506;11.876;2024-02-26T04:25:11;6.47;;;5.50;;
14584;SDS011;7379;51.506;11.876;2024-02-26T04:27:38;7.03;;;6.00;;
14584;SDS011;7379;51.506;11.876;2024-02-26T04:30:06;6.83;;;5.70;;
14584;SDS011;7379;51.506;11.876;2024-02-26T04:32:33;6.53;;;5.40;;
14584;SDS011;7379;51.506;11.876;2024-02-26T04:35:00;7.37;;;6.07;;
14584;SDS011;7379;51.506;11.876;2024-02-26T04:37:28;6.67;;;6.00;;
14584;SDS011;7379;51.506;11.876;2024-02-26T04:39:58;7.70;;;6.00;;
14584;SDS011;7379;51.506;11.876;2024-02-26T04:42:25;8.07;;;6.13;;
14584;SDS011;7379;51.506;11.876;2024-02-26T04:44:52;7.43;;;6.50;;
14584;SDS011;7379;51.506;11.876;2024-02-26T04:47:18;7.57;;;6.77;;
14584;SDS011;7379;51.506;11.876;2024-02-26T04:49:47;7.60;;;6.80;;
14584;SDS011;7379;51.506;11.876;2024-02-26T04:52:13;7.13;;;6.43;;
14584;SDS011;7379;51.506;11.876;2024-02-26T04:54:40;7.00;;;6.30;;
14584;SDS011;7379;51.506;11.876;2024-02-26T04:57:08;7.77;;;6.93;;
14584;SDS011;7379;51.506;11.876;2024-02-26T04:59:35;7.20;;;6.50;;
14584;SDS011;7379;51.506;11.876;2024-02-26T05:02:02;7.53;;;6.73;;
14584;SDS011;7379;51.506;11.876;2024-02-26T05:04:29;7.47;;;6.67;;
14584;SDS011;7379;51.506;11.876;2024-02-26T05:06:56;7.93;;;6.73;;
14584;SDS011;7379;51.506;11.876;2024-02-26T05:09:23;9.60;;;7.30;;
14584;SDS011;7379;51.506;11.876;2024-02-26T05:11:49;8.00;;;7.20;;
14584;SDS011;7379;51.506;11.876;2024-02-26T05:14:18;9.03;;;7.20;;
14584;SDS011;7379;51.506;11.876;2024-02-26T05:16:44;7.60;;;6.80;;
14584;SDS011;7379;51.506;11.876;2024-02-26T05:19:12;8.40;;;6.83;;
14584;SDS011;7379;51.506;11.876;2024-02-26T05:21:39;7.80;;;6.77;;
14584;SDS011;7379;51.506;11.876;2024-02-26T05:24:06;7.10;;;6.30;;
14584;SDS011;7379;51.506;11.876;2024-02-26T05:26:32;7.63;;;6.80;;
14584;SDS011;7379;51.506;11.876;2024-02-26T05:28:59;7.67;;;6.83;;
14584;SDS011;7379;51.506;11.876;2024-02-26T05:31:27;7.57;;;6.57;;
14584;SDS011;7379;51.506;11.876;2024-02-26T05:33:54;7.03;;;6.33;;
14584;SDS011;7379;51.506;11.876;2024-02-26T05:36:21;7.70;;;6.70;;
14584;SDS011;7379;51.506;11.876;2024-02-26T05:38:48;7.63;;;6.33;;
14584;SDS011;7379;51.506;11.876;2024-02-26T05:41:15;8.13;;;6.97;;
14584;SDS011;7379;51.506;11.876;2024-02-26T05:43:45;7.33;;;6.53;;
14584;SDS011;7379;51.506;11.876;2024-02-26T05:46:12;8.77;;;6.97;;
14584;SDS011;7379;51.506;11.876;2024-02-26T05:48:40;7.10;;;6.40;;
14584;SDS011;7379;51.506;11.876;2024-02-26T05:51:06;7.80;;;6.93;;
14584;SDS011;7379;51.506;11.876;2024-02-26T05:53:33;7.97;;;6.73;;
14584;SDS011;7379;51.506;11.876;2024-02-26T05:56:00;8.87;;;7.43;;
14584;SDS011;7379;51.506;11.876;2024-02-26T05:58:27;7.77;;;6.97;;
14584;SDS011;7379;51.506;11.876;2024-02-26T06:00:53;7.77;;;6.97;;
14584;SDS011;7379;51.506;11.876;2024-02-26T06:03:20;8.40;;;7.53;;
14584;SDS011;7379;51.506;11.876;2024-02-26T06:05:48;9.20;;;7.90;;
14584;SDS011;7379;51.506;11.876;2024-02-26T06:08:15;8.13;;;7.33;;
14584;SDS011;7379;51.506;11.876;2024-02-26T06:10:42;8.70;;;7.63;;
14584;SDS011;7379;51.506;11.876;2024-02-26T06:13:09;7.83;;;7.03;;
14584;SDS011;7379;51.506;11.876;2024-02-26T06:15:35;10.33;;;7.93;;
14584;SDS011;7379;51.506;11.876;2024-02-26T06:18:02;8.00;;;7.20;;
14584;SDS011;7379;51.506;11.876;2024-02-26T06:20:29;9.67;;;8.37;;
14584;SDS011;7379;51.506;11.876;2024-02-26T06:22:57;8.63;;;7.73;;
14584;SDS011;7379;51.506;11.876;2024-02-26T06:25:24;9.53;;;7.80;;
14584;SDS011;7379;51.506;11.876;2024-02-26T06:27:50;9.73;;;8.20;;
14584;SDS011;7379;51.506;11.876;2024-02-26T06:30:17;8.57;;;7.77;;
14584;SDS011;7379;51.506;11.876;2024-02-26T06:32:44;9.80;;;7.97;;
14584;SDS011;7379;51.506;11.876;2024-02-26T06:35:11;8.77;;;7.80;;
14584;SDS011;7379;51.506;11.876;2024-02-26T06:37:37;10.00;;;8.47;;
14584;SDS011;7379;51.506;11.876;2024-02-26T06:40:06;9.30;;;8.30;;
14584;SDS011;7379;51.506;11.876;2024-02-26T06:42:33;8.90;;;8.00;;
14584;SDS011;7379;51.506;11.876;2024-02-26T06:45:00;9.80;;;8.47;;
14584;SDS011;7379;51.506;11.876;2024-02-26T06:47:29;9.63;;;8.40;;
14584;SDS011;7379;51.506;11.876;2024-02-26T06:49:55;10.23;;;8.57;;
14584;SDS011;7379;51.506;11.876;2024-02-26T06:52:23;9.50;;;8.50;;
14584;SDS011;7379;51.506;11.876;2024-02-26T06:54:51;10.80;;;9.03;;
14584;SDS011;7379;51.506;11.876;2024-02-26T06:57:19;10.13;;;9.13;;
14584;SDS011;7379;51.506;11.876;2024-02-26T06:59:46;10.53;;;8.83;;
14584;SDS011;7379;51.506;11.876;2024-02-26T07:02:12;10.60;;;8.93;;
14584;SDS011;7379;51.506;11.876;2024-02-26T07:04:41;10.87;;;9.37;;
14584;SDS011;7379;51.506;11.876;2024-02-26T07:07:08;10.50;;;8.97;;
14584;SDS011;7379;51.506;11.876;2024-02-26T07:09:35;11.03;;;9.13;;
14584;SDS011;7379;51.506;11.876;2024-02-26T07:12:02;10.13;;;9.10;;
14584;SDS011;7379;51.506;11.876;2024-02-26T07:14:30;10.17;;;8.80;;
14584;SDS011;7379;51.506;11.876;2024-02-26T07:16:57;10.37;;;9.00;;
14584;SDS011;7379;51.506;11.876;2024-02-26T07:19:24;11.90;;;9.33;;
14584;SDS011;7379;51.506;11.876;2024-02-26T07:21:51;10.27;;;8.87;;
14584;SDS011;7379;51.506;11.876;2024-02-26T07:24:18;10.30;;;9.20;;
14584;SDS011;7379;51.506;11.876;2024-02-26T07:26:44;9.83;;;8.83;;
14584;SDS011;7379;51.506;11.876;2024-02-26T07:29:11;10.53;;;9.23;;
14584;SDS011;7379;51.506;11.876;2024-02-26T07:31:39;10.27;;;9.10;;
14584;SDS011;7379;51.506;11.876;2024-02-26T07:34:06;9.37;;;8.37;;
14584;SDS011;7379;51.506;11.876;2024-02-26T07:36:33;10.07;;;9.07;;
14584;SDS011;7379;51.506;11.876;2024-02-26T07:39:00;9.73;;;8.57;;
14584;SDS011;7379;51.506;11.876;2024-02-26T07:41:26;10.93;;;8.60;;
14584;SDS011;7379;51.506;11.876;2024-02-26T07:43:53;9.00;;;8.10;;
14584;SDS011;7379;51.506;11.876;2024-02-26T07:46:20;9.37;;;8.37;;
14584;SDS011;7379;51.506;11.876;2024-02-26T07:48:48;9.20;;;8.27;;
14584;SDS011;7379;51.506;11.876;2024-02-26T07:51:15;8.97;;;8.07;;
14584;SDS011;7379;51.506;11.876;2024-02-26T07:53:42;9.40;;;8.07;;
14584;SDS011;7379;51.506;11.876;2024-02-26T07:56:09;9.67;;;8.67;;
14584;SDS011;7379;51.506;11.876;2024-02-26T07:58:35;8.90;;;7.97;;
14584;SDS011;7379;51.506;11.876;2024-02-26T08:01:02;9.30;;;7.80;;
14584;SDS011;7379;51.506;11.876;2024-02-26T08:03:29;9.17;;;8.07;;
14584;SDS011;7379;51.506;11.876;2024-02-26T08:05:57;9.27;;;8.23;;
14584;SDS011;7379;51.506;11.876;2024-02-26T08:08:24;9.43;;;8.37;;
14584;SDS011;7379;51.506;11.876;2024-02-26T08:10:51;9.13;;;7.97;;
14584;SDS011;7379;51.506;11.876;2024-02-26T08:13:17;9.53;;;8.53;;
14584;SDS011;7379;51.506;11.876;2024-02-26T08:15:44;9.53;;;8.50;;
14584;SDS011;7379;51.506;11.876;2024-02-26T08:18:11;9.63;;;8.20;;
14584;SDS011;7379;51.506;11.876;2024-02-26T08:20:37;10.23;;;8.60;;
14584;SDS011;7379;51.506;11.876;2024-02-26T08:23:05;9.33;;;8.40;;
14584;SDS011;7379;51.506;11.876;2024-02-26T08:25:32;10.97;;;8.63;;
14584;SDS011;7379;51.506;11.876;2024-02-26T08:27:59;10.43;;;8.50;;
14584;SDS011;7379;51.506;11.876;2024-02-26T08:30:26;11.90;;;8.97;;
14584;SDS011;7379;51.506;11.876;2024-02-26T08:32:52;11.10;;;8.57;;
14584;SDS011;7379;51.506;11.876;2024-02-26T08:35:19;9.63;;;8.20;;
14584;SDS011;7379;51.506;11.876;2024-02-26T08:37:46;10.87;;;9.13;;
14584;SDS011;7379;51.506;11.876;2024-02-26T08:40:15;10.10;;;8.80;;
14584;SDS011;7379;51.506;11.876;2024-02-26T08:42:42;10.53;;;8.80;;
14584;SDS011;7379;51.506;11.876;2024-02-26T08:45:09;9.60;;;8.60;;
14584;SDS011;7379;51.506;11.876;2024-02-26T08:47:36;10.87;;;9.33;;
14584;SDS011;7379;51.506;11.876;2024-02-26T08:50:03;9.33;;;8.37;;
14584;SDS011;7379;51.506;11.876;2024-02-26T08:52:31;9.87;;;8.87;;
14584;SDS011;7379;51.506;11.876;2024-02-26T08:54:58;9.60;;;8.60;;
14584;SDS011;7379;51.506;11.876;2024-02-26T08:57:26;10.87;;;8.73;;
14584;SDS011;7379;51.506;11.876;2024-02-26T08:59:53;10.70;;;8.73;;
14584;SDS011;7379;51.506;11.876;2024-02-26T09:02:19;11.43;;;8.77;;
14584;SDS011;7379;51.506;11.876;2024-02-26T09:04:46;9.43;;;8.43;;
14584;SDS011;7379;51.506;11.876;2024-02-26T09:07:13;9.97;;;8.97;;
14584;SDS011;7379;51.506;11.876;2024-02-26T09:09:39;10.80;;;9.03;;
14584;SDS011;7379;51.506;11.876;2024-02-26T09:12:06;10.67;;;9.00;;
14584;SDS011;7379;51.506;11.876;2024-02-26T09:14:35;9.93;;;8.83;;
14584;SDS011;7379;51.506;11.876;2024-02-26T09:17:02;11.57;;;9.30;;
14584;SDS011;7379;51.506;11.876;2024-02-26T09:19:29;10.27;;;8.97;;
14584;SDS011;7379;51.506;11.876;2024-02-26T09:21:55;10.67;;;9.47;;
14584;SDS011;7379;51.506;11.876;2024-02-26T09:24:23;10.07;;;8.97;;
14584;SDS011;7379;51.506;11.876;2024-02-26T09:26:50;10.83;;;9.60;;
14584;SDS011;7379;51.506;11.876;2024-02-26T09:29:17;10.73;;;9.27;;
14584;SDS011;7379;51.506;11.876;2024-02-26T09:31:45;11.03;;;9.53;;
14584;SDS011;7379;51.506;11.876;2024-02-26T09:34:13;10.47;;;9.33;;
14584;SDS011;7379;51.506;11.876;2024-02-26T09:36:39;11.83;;;10.13;;
14584;SDS011;7379;51.506;11.876;2024-02-26T09:39:06;12.30;;;10.17;;
14584;SDS011;7379;51.506;11.876;2024-02-26T09:41:36;11.83;;;10.03;;
14584;SDS011;7379;51.506;11.876;2024-02-26T09:44:02;11.77;;;10.00;;
14584;SDS011;7379;51.506;11.876;2024-02-26T09:46:31;11.73;;;10.00;;
14584;SDS011;7379;51.506;11.876;2024-02-26T09:48:59;10.77;;;9.53;;
14584;SDS011;7379;51.506;11.876;2024-02-26T09:51:26;10.60;;;9.60;;
14584;SDS011;7379;51.506;11.876;2024-02-26T09:53:53;10.77;;;9.60;;
14584;SDS011;7379;51.506;11.876;2024-02-26T09:56:22;10.67;;;9.40;;
14584;SDS011;7379;51.506;11.876;2024-02-26T09:58:49;10.83;;;9.70;;
14584;SDS011;7379;51.506;11.876;2024-02-26T10:01:19;12.07;;;10.13;;
14584;SDS011;7379;51.506;11.876;2024-02-26T10:03:48;12.50;;;9.80;;
14584;SDS011;7379;51.506;11.876;2024-02-26T10:06:22;11.00;;;9.67;;
14584;SDS011;7379;51.506;11.876;2024-02-26T10:08:49;11.97;;;10.03;;
14584;SDS011;7379;51.506;11.876;2024-02-26T10:11:17;12.00;;;9.17;;
14584;SDS011;7379;51.506;11.876;2024-02-26T10:13:44;13.97;;;9.87;;
14584;SDS011;7379;51.506;11.876;2024-02-26T10:16:11;12.30;;;9.23;;
14584;SDS011;7379;51.506;11.876;2024-02-26T10:18:47;11.17;;;9.67;;
14584;SDS011;7379;51.506;11.876;2024-02-26T10:21:15;12.20;;;9.70;;
14584;SDS011;7379;51.506;11.876;2024-02-26T10:23:45;10.53;;;9.17;;
14584;SDS011;7379;51.506;11.876;2024-02-26T10:26:13;10.87;;;9.00;;
14584;SDS011;7379;51.506;11.876;2024-02-26T10:28:41;10.93;;;9.50;;
14584;SDS011;7379;51.506;11.876;2024-02-26T10:31:08;11.83;;;9.23;;
14584;SDS011;7379;51.506;11.876;2024-02-26T10:33:36;13.10;;;9.50;;
14584;SDS011;7379;51.506;11.876;2024-02-26T10:36:04;10.33;;;9.17;;
14584;SDS011;7379;51.506;11.876;2024-02-26T10:38:32;10.87;;;8.77;;
14584;SDS011;7379;51.506;11.876;2024-02-26T10:41:00;11.20;;;9.20;;
14584;SDS011;7379;51.506;11.876;2024-02-26T10:43:28;9.50;;;8.40;;
14584;SDS011;7379;51.506;11.876;2024-02-26T10:45:55;11.03;;;9.03;;
14584;SDS011;7379;51.506;11.876;2024-02-26T10:48:21;11.77;;;9.57;;
14584;SDS011;7379;51.506;11.876;2024-02-26T10:50:48;12.50;;;9.40;;
14584;SDS011;7379;51.506;11.876;2024-02-26T10:53:16;11.43;;;8.87;;
14584;SDS011;7379;51.506;11.876;2024-02-26T10:55:46;11.47;;;8.83;;
14584;SDS011;7379;51.506;11.876;2024-02-26T10:58:19;9.87;;;8.50;;
14584;SDS011;7379;51.506;11.876;2024-02-26T11:00:47;10.53;;;8.90;;
14584;SDS011;7379;51.506;11.876;2024-02-26T11:03:16;12.07;;;9.50;;
14584;SDS011;7379;51.506;11.876;2024-02-26T11:05:45;10.00;;;8.77;;
14584;SDS011;7379;51.506;11.876;2024-02-26T11:08:14;12.27;;;10.27;;
14584;SDS011;7379;51.506;11.876;2024-02-26T11:10:41;11.33;;;9.37;;
14584;SDS011;7379;51.506;11.876;2024-02-26T11:13:09;11.33;;;9.30;;
14584;SDS011;7379;51.506;11.876;2024-02-26T11:15:39;12.10;;;9.40;;
14584;SDS011;7379;51.506;11.876;2024-02-26T11:18:07;10.10;;;8.93;;
14584;SDS011;7379;51.506;11.876;2024-02-26T11:20:34;9.83;;;8.83;;
14584;SDS011;7379;51.506;11.876;2024-02-26T11:23:06;10.13;;;8.27;;
14584;SDS011;7379;51.506;11.876;2024-02-26T11:25:34;11.83;;;9.07;;
14584;SDS011;7379;51.506;11.876;2024-02-26T11:28:02;10.83;;;8.70;;
14584;SDS011;7379;51.506;11.876;2024-02-26T11:30:32;11.33;;;8.77;;
14584;SDS011;7379;51.506;11.876;2024-02-26T11:33:05;10.10;;;8.70;;
14584;SDS011;7379;51.506;11.876;2024-02-26T11:35:33;8.80;;;7.83;;
14584;SDS011;7379;51.506;11.876;2024-02-26T11:38:01;10.37;;;8.73;;
14584;SDS011;7379;51.506;11.876;2024-02-26T11:40:28;10.23;;;8.17;;
14584;SDS011;7379;51.506;11.876;2024-02-26T11:42:57;11.43;;;9.00;;
14584;SDS011;7379;51.506;11.876;2024-02-26T11:48:21;10.70;;;8.67;;
14584;SDS011;7379;51.506;11.876;2024-02-26T11:50:49;9.23;;;8.27;;
14584;SDS011;7379;51.506;11.876;2024-02-26T11:53:21;9.07;;;7.90;;
14584;SDS011;7379;51.506;11.876;2024-02-26T11:55:48;12.47;;;8.67;;
14584;SDS011;7379;51.506;11.876;2024-02-26T11:58:39;10.03;;;8.03;;
14584;SDS011;7379;51.506;11.876;2024-02-26T12:04:11;10.23;;;7.97;;
14584;SDS011;7379;51.506;11.876;2024-02-26T12:06:43;10.37;;;9.00;;
14584;SDS011;7379;51.506;11.876;2024-02-26T12:12:03;11.13;;;8.20;;
14584;SDS011;7379;51.506;11.876;2024-02-26T12:14:32;10.50;;;8.80;;
14584;SDS011;7379;51.506;11.876;2024-02-26T12:17:00;10.53;;;8.33;;
14584;SDS011;7379;51.506;11.876;2024-02-26T12:19:28;10.20;;;8.53;;
14584;SDS011;7379;51.506;11.876;2024-02-26T12:21:57;9.90;;;8.23;;
14584;SDS011;7379;51.506;11.876;2024-02-26T12:24:24;10.87;;;8.67;;
14584;SDS011;7379;51.506;11.876;2024-02-26T12:26:50;9.93;;;8.27;;
14584;SDS011;7379;51.506;11.876;2024-02-26T12:29:17;10.00;;;8.07;;
14584;SDS011;7379;51.506;11.876;2024-02-26T12:31:44;10.27;;;8.40;;
14584;SDS011;7379;51.506;11.876;2024-02-26T12:34:11;10.33;;;8.63;;
14584;SDS011;7379;51.506;11.876;2024-02-26T12:36:40;10.20;;;8.53;;
14584;SDS011;7379;51.506;11.876;2024-02-26T12:39:07;9.30;;;7.97;;
14584;SDS011;7379;51.506;11.876;2024-02-26T12:41:34;10.70;;;8.80;;
14584;SDS011;7379;51.506;11.876;2024-02-26T12:44:01;9.07;;;7.90;;
14584;SDS011;7379;51.506;11.876;2024-02-26T12:46:28;10.23;;;8.70;;
14584;SDS011;7379;51.506;11.876;2024-02-26T12:48:55;9.10;;;8.10;;
14584;SDS011;7379;51.506;11.876;2024-02-26T12:51:23;9.80;;;8.32;;
14584;SDS011;7379;51.506;11.876;2024-02-26T12:53:53;10.32;;;8.63;;
14584;SDS011;7379;51.506;11.876;2024-02-26T12:56:21;9.50;;;8.30;;
14584;SDS011;7379;51.506;11.876;2024-02-26T12:58:49;9.47;;;8.37;;
14584;SDS011;7379;51.506;11.876;2024-02-26T13:01:17;9.43;;;8.40;;
14584;SDS011;7379;51.506;11.876;2024-02-26T13:03:50;10.73;;;8.23;;
14584;SDS011;7379;51.506;11.876;2024-02-26T13:06:17;11.10;;;8.97;;
14584;SDS011;7379;51.506;11.876;2024-02-26T13:08:44;9.63;;;8.38;;
14584;SDS011;7379;51.506;11.876;2024-02-26T13:11:13;9.70;;;8.05;;
14584;SDS011;7379;51.506;11.876;2024-02-26T13:13:40;10.88;;;8.90;;
14584;SDS011;7379;51.506;11.876;2024-02-26T13:16:08;10.90;;;8.80;;
14584;SDS011;7379;51.506;11.876;2024-02-26T13:18:36;9.70;;;8.70;;
14584;SDS011;7379;51.506;11.876;2024-02-26T13:21:07;10.87;;;8.73;;
14584;SDS011;7379;51.506;11.876;2024-02-26T13:23:35;10.60;;;8.25;;
14584;SDS011;7379;51.506;11.876;2024-02-26T13:26:02;10.47;;;8.80;;
14584;SDS011;7379;51.506;11.876;2024-02-26T13:28:30;10.73;;;8.40;;
14584;SDS011;7379;51.506;11.876;2024-02-26T13:30:58;9.67;;;8.67;;
14584;SDS011;7379;51.506;11.876;2024-02-26T13:33:26;11.03;;;8.23;;
14584;SDS011;7379;51.506;11.876;2024-02-26T13:35:55;9.77;;;8.40;;
14584;SDS011;7379;51.506;11.876;2024-02-26T13:38:22;9.37;;;8.37;;
14584;SDS011;7379;51.506;11.876;2024-02-26T13:40:49;10.98;;;8.52;;
14584;SDS011;7379;51.506;11.876;2024-02-26T13:43:16;11.77;;;8.52;;
14584;SDS011;7379;51.506;11.876;2024-02-26T13:45:44;8.80;;;7.80;;
14584;SDS011;7379;51.506;11.876;2024-02-26T13:48:11;10.27;;;8.07;;
14584;SDS011;7379;51.506;11.876;2024-02-26T13:50:39;10.40;;;8.23;;
14584;SDS011;7379;51.506;11.876;2024-02-26T13:53:08;8.95;;;7.97;;
14584;SDS011;7379;51.506;11.876;2024-02-26T13:55:35;10.63;;;8.63;;
14584;SDS011;7379;51.506;11.876;2024-02-26T13:58:02;12.57;;;8.90;;
14584;SDS011;7379;51.506;11.876;2024-02-26T14:00:29;10.10;;;8.30;;
14584;SDS011;7379;51.506;11.876;2024-02-26T14:02:58;9.35;;;8.30;;
14584;SDS011;7379;51.506;11.876;2024-02-26T14:05:25;10.57;;;8.52;;
14584;SDS011;7379;51.506;11.876;2024-02-26T14:07:52;9.40;;;8.40;;
14584;SDS011;7379;51.506;11.876;2024-02-26T14:10:18;10.93;;;8.52;;
14584;SDS011;7379;51.506;11.876;2024-02-26T14:12:45;11.00;;;8.52;;
14584;SDS011;7379;51.506;11.876;2024-02-26T14:15:12;10.07;;;8.95;;
14584;SDS011;7379;51.506;11.876;2024-02-26T14:17:39;11.82;;;8.88;;
14584;SDS011;7379;51.506;11.876;2024-02-26T14:20:08;11.48;;;9.00;;
14584;SDS011;7379;51.506;11.876;2024-02-26T14:22:35;11.68;;;9.75;;
14584;SDS011;7379;51.506;11.876;2024-02-26T14:25:01;12.60;;;9.38;;
14584;SDS011;7379;51.506;11.876;2024-02-26T14:27:28;11.57;;;9.50;;
14584;SDS011;7379;51.506;11.876;2024-02-26T14:29:55;10.53;;;9.43;;
14584;SDS011;7379;51.506;11.876;2024-02-26T14:32:22;11.57;;;9.63;;
14584;SDS011;7379;51.506;11.876;2024-02-26T14:34:48;12.20;;;9.98;;
14584;SDS011;7379;51.506;11.876;2024-02-26T14:37:16;12.10;;;9.75;;
14584;SDS011;7379;51.506;11.876;2024-02-26T14:39:43;12.18;;;9.38;;
14584;SDS011;7379;51.506;11.876;2024-02-26T14:42:12;12.63;;;9.90;;
14584;SDS011;7379;51.506;11.876;2024-02-26T14:44:42;10.88;;;9.57;;
14584;SDS011;7379;51.506;11.876;2024-02-26T14:47:09;10.70;;;9.32;;
14584;SDS011;7379;51.506;11.876;2024-02-26T14:49:35;12.93;;;9.38;;
14584;SDS011;7379;51.506;11.876;2024-02-26T14:52:02;11.13;;;9.93;;